Butte Falls, Oregon
Current Conditions -  °F | °C
As of 9:53 AM on Saturday 25 Oct 2014 (Local Time) from KMFR Reporting Station
Overcast Overcast  
Wind Chill: 67°   Ceiling: 9000
Heat Index: 67°   Visibility: 10mi
Dew Point: 40°   Wind: 24mph
Humidity: 37%   Direction: 180°S
Pressure: 29.55"   Gusts: 38mph
Location:  42.54°N, 122.57°W
Report Text: KMFR 251653Z 18021G33KT 10SM OVC090 19/04 A2955 RMK AO2 PK WND 19033/1644 SLP000 T01940044
Loading
Personal Weather Stations






























Interactive Weather Map
Tropical Storm Tracking
New forecast layout! Learn more

10-Day Weather Forecast

Advertisements
Track Severe Weather on mobile